Terminal Aerodrome Forecast
Issued by NWS

Home | Current Version | Previous Version | Graphics & Text | Print | Product List | Glossary On
Versions: 1 2 3 4 5 6 7 8 9 10 11 12 13 14 15 16 17
000
FTUS41 KCLE 011124
TAFFDY
TAF
KFDY 011124Z 0112/0212 VRB03KT 4SM BR SKC
     FM011300 24008KT P6SM SCT040
     FM012100 22004KT P6SM SCT040 BKN250
     FM020700 VRB03KT 4SM BR BKN250=

USA.gov is the U.S. government's official web portal to all federal, state and local government web resources and services.